createdAt,value
2019-04-14T00:01:34.801Z,98535.03
2019-04-14T00:04:16.408Z,98538.31
2019-04-14T00:06:48.326Z,98528.59
2019-04-14T00:09:20.657Z,98526.92
2019-04-14T00:11:52.687Z,98521.52
2019-04-14T00:14:23.444Z,98520.38
2019-04-14T00:16:55.242Z,98518.48
2019-04-14T00:19:26.249Z,98520.59
2019-04-14T00:22:00.950Z,98527.72
2019-04-14T00:24:31.944Z,98520.23
2019-04-14T00:27:02.716Z,98520.34
2019-04-14T00:29:33.361Z,98514.70
2019-04-14T00:32:05.183Z,98512.13
2019-04-14T00:34:46.428Z,98511.09
2019-04-14T00:37:42.389Z,98510.48
2019-04-14T00:40:21.983Z,98507.77
2019-04-14T00:43:04.959Z,98502.83
2019-04-14T00:45:47.747Z,98506.95
2019-04-14T00:48:19.342Z,98502.73
2019-04-14T00:50:49.572Z,98499.55
2019-04-14T00:53:20.709Z,98503.16
2019-04-14T00:55:51.722Z,98498.00
2019-04-14T00:58:23.505Z,98497.07
2019-04-14T01:00:54.251Z,98490.38
2019-04-14T01:03:24.882Z,98489.52
2019-04-14T01:05:56.764Z,98494.78
2019-04-14T01:08:27.553Z,98488.52
2019-04-14T01:10:58.397Z,98488.19
2019-04-14T01:13:29.081Z,98488.52
2019-04-14T01:16:06.951Z,98484.32
2019-04-14T01:18:32.218Z,98477.02
2019-04-14T01:21:02.939Z,98480.53
2019-04-14T01:23:34.715Z,98487.36
2019-04-14T01:26:05.422Z,98482.06
2019-04-14T01:28:36.122Z,98485.22
2019-04-14T01:31:07.652Z,98484.86
2019-04-14T01:33:38.328Z,98488.27
2019-04-14T01:36:09.095Z,98476.19
2019-04-14T01:38:40.667Z,98477.23
2019-04-14T01:41:12.730Z,98475.48
2019-04-14T01:43:43.588Z,98473.51
2019-04-14T01:46:19.668Z,98475.02
2019-04-14T01:48:47.511Z,98474.33
2019-04-14T01:51:39.910Z,98474.19
2019-04-14T01:54:32.477Z,98474.08
2019-04-14T01:57:17.577Z,98475.02
2019-04-14T01:59:48.326Z,98478.77
2019-04-14T02:02:22.681Z,98478.16
2019-04-14T02:04:53.450Z,98483.07
2019-04-14T02:07:24.035Z,98486.00
2019-04-14T02:09:55.375Z,98484.00
2019-04-14T02:12:26.139Z,98481.28
2019-04-14T02:14:58.042Z,98484.10
2019-04-14T02:17:28.839Z,98491.37
2019-04-14T02:20:01.184Z,98490.05
2019-04-14T02:22:33.357Z,98484.92
2019-04-14T02:25:04.038Z,98481.02
2019-04-14T02:27:35.977Z,98478.66
2019-04-14T02:30:15.208Z,98477.36
2019-04-14T02:33:17.183Z,98475.92
2019-04-14T02:35:44.884Z,98476.75
2019-04-14T02:38:23.174Z,98474.48
2019-04-14T02:41:04.273Z,98474.22
2019-04-14T02:43:25.177Z,98483.00
2019-04-14T02:45:51.999Z,98485.21
2019-04-14T02:51:00.905Z,98483.67
2019-04-14T02:53:36.687Z,98477.68
2019-04-14T02:58:26.627Z,98482.36
2019-04-14T03:01:09.599Z,98487.42
2019-04-14T03:03:43.598Z,98480.83
2019-04-14T03:11:21.240Z,98484.07
2019-04-14T03:16:21.977Z,98487.95
2019-04-14T03:19:06.436Z,98478.33
2019-04-14T03:24:35.862Z,98483.91
2019-04-14T03:27:47.858Z,98483.80
2019-04-14T03:30:58.744Z,98487.78
2019-04-14T03:38:18.582Z,98477.03
2019-04-14T03:40:50.497Z,98476.78
2019-04-14T03:43:19.714Z,98476.98
2019-04-14T03:45:54.708Z,98480.91
2019-04-14T03:48:45.158Z,98480.91
2019-04-14T03:51:00.343Z,98476.42
2019-04-14T03:53:30.707Z,98480.97
2019-04-14T03:56:31.353Z,98479.92
2019-04-14T03:59:02.056Z,98481.22
2019-04-14T04:01:36.648Z,98476.73
2019-04-14T04:04:07.548Z,98479.31
2019-04-14T04:06:38.098Z,98482.20
2019-04-14T04:09:10.354Z,98478.23
2019-04-14T04:11:41.462Z,98484.92
2019-04-14T04:14:12.135Z,98491.23
2019-04-14T04:17:05.678Z,98482.92
2019-04-14T04:19:55.630Z,98488.23
2019-04-14T04:22:47.574Z,98493.72
2019-04-14T04:25:23.296Z,98483.16
2019-04-14T04:28:23.203Z,98490.98
2019-04-14T04:31:09.685Z,98493.23
2019-04-14T04:33:56.767Z,98494.17
2019-04-14T04:36:35.672Z,98498.61
2019-04-14T04:39:12.856Z,98498.40
2019-04-14T04:41:43.475Z,98501.08
2019-04-14T04:44:16.433Z,98495.20
2019-04-14T04:46:48.301Z,98496.50
2019-04-14T04:49:24.074Z,98490.95
2019-04-14T04:51:51.269Z,98492.72
2019-04-14T04:54:21.819Z,98491.16
2019-04-14T04:56:53.668Z,98497.50
2019-04-14T04:59:25.496Z,98501.96
2019-04-14T05:01:56.519Z,98498.65
2019-04-14T05:04:27.113Z,98500.41
2019-04-14T05:06:59.770Z,98506.19
2019-04-14T05:09:46.969Z,98504.08
2019-04-14T05:12:41.364Z,98507.84
2019-04-14T05:15:37.994Z,98513.12
2019-04-14T05:18:22.099Z,98518.28
2019-04-14T05:20:55.328Z,98521.55
2019-04-14T05:23:25.700Z,98522.83
2019-04-14T05:25:56.525Z,98528.70
2019-04-14T05:28:27.138Z,98529.39
2019-04-14T05:31:01.275Z,98530.42
2019-04-14T05:33:31.983Z,98531.48
2019-04-14T05:36:02.538Z,98537.48
2019-04-14T05:38:34.274Z,98538.11
2019-04-14T05:41:06.839Z,98541.72
2019-04-14T05:43:45.433Z,98544.87
2019-04-14T05:46:09.968Z,98540.42
2019-04-14T05:48:40.581Z,98541.36
2019-04-14T05:51:11.130Z,98552.15
2019-04-14T05:53:41.781Z,98545.45
2019-04-14T05:56:12.365Z,98547.05
2019-04-14T05:58:42.979Z,98548.69
2019-04-14T06:01:13.908Z,98543.67
2019-04-14T06:03:45.401Z,98549.20
2019-04-14T06:06:15.962Z,98550.80
2019-04-14T06:08:46.613Z,98556.42
2019-04-14T06:11:17.509Z,98554.87
2019-04-14T06:13:48.518Z,98549.30
2019-04-14T06:16:20.391Z,98554.14
2019-04-14T06:18:51.664Z,98548.97
2019-04-14T06:21:22.224Z,98555.55
2019-04-14T06:23:55.153Z,98553.17
2019-04-14T06:26:25.680Z,98561.72
2019-04-14T06:28:56.339Z,98560.48
2019-04-14T06:31:44.453Z,98560.48
2019-04-14T06:34:29.085Z,98560.26
2019-04-14T06:37:14.070Z,98558.61
2019-04-14T06:39:47.422Z,98552.71
2019-04-14T06:42:18.007Z,98558.35
2019-04-14T06:44:48.699Z,98549.66
2019-04-14T06:47:19.225Z,98549.04
2019-04-14T06:49:49.874Z,98548.37
2019-04-14T06:52:20.553Z,98552.09
2019-04-14T06:54:51.151Z,98553.80
2019-04-14T06:57:22.100Z,98551.45
2019-04-14T06:59:52.706Z,98558.35
2019-04-14T07:02:24.729Z,98555.86
2019-04-14T07:04:55.286Z,98557.00
2019-04-14T07:07:25.860Z,98566.31
2019-04-14T07:09:56.534Z,98562.61
2019-04-14T07:12:29.440Z,98560.47
2019-04-14T07:15:00.243Z,98561.70
2019-04-14T07:17:30.817Z,98566.92
2019-04-14T07:20:02.569Z,98565.05
2019-04-14T07:22:33.450Z,98564.96
2019-04-14T07:25:04.897Z,98565.67
2019-04-14T07:27:35.484Z,98564.46
2019-04-14T07:30:29.786Z,98569.98
2019-04-14T07:33:17.758Z,98571.70
2019-04-14T07:36:01.785Z,98568.81
2019-04-14T07:38:36.373Z,98571.22
2019-04-14T07:41:25.234Z,98574.05
2019-04-14T07:44:20.555Z,98569.57
2019-04-14T07:46:58.479Z,98569.85
2019-04-14T07:49:55.147Z,98572.38
2019-04-14T07:52:47.804Z,98568.48
2019-04-14T07:55:52.322Z,98574.37
2019-04-14T07:58:39.401Z,98573.16
2019-04-14T08:01:12.737Z,98578.14
2019-04-14T08:04:02.115Z,98576.89
2019-04-14T08:06:33.146Z,98582.49
2019-04-14T08:09:06.955Z,98581.55
2019-04-14T08:11:37.484Z,98582.69
2019-04-14T08:14:08.111Z,98582.77
2019-04-14T08:16:38.666Z,98589.44
2019-04-14T08:19:10.598Z,98587.12
2019-04-14T08:21:41.118Z,98583.52
2019-04-14T08:24:11.798Z,98584.61
2019-04-14T08:26:42.324Z,98586.25
2019-04-14T08:29:12.942Z,98589.66
2019-04-14T08:31:43.508Z,98597.01
2019-04-14T08:34:15.088Z,98597.08
2019-04-14T08:36:47.210Z,98598.80
2019-04-14T08:39:17.809Z,98599.13
2019-04-14T08:42:05.683Z,98600.96
2019-04-14T08:44:42.668Z,98599.62
2019-04-14T08:47:30.817Z,98604.52
2019-04-14T08:50:15.804Z,98604.45
2019-04-14T08:53:04.997Z,98599.69
2019-04-14T08:56:00.731Z,98606.20
2019-04-14T08:58:36.912Z,98606.91
2019-04-14T09:01:29.576Z,98606.00
2019-04-14T09:04:28.560Z,98605.41
2019-04-14T09:07:07.677Z,98615.56
2019-04-14T09:09:46.505Z,98611.60
2019-04-14T09:12:20.400Z,98611.13
2019-04-14T09:14:57.130Z,98621.76
2019-04-14T09:17:23.706Z,98619.91
2019-04-14T09:19:54.331Z,98625.09
2019-04-14T09:22:24.916Z,98626.17
2019-04-14T09:24:55.500Z,98620.77
2019-04-14T09:27:26.100Z,98627.70
2019-04-14T09:29:56.687Z,98630.71
2019-04-14T09:32:28.359Z,98626.53
2019-04-14T09:34:58.910Z,98627.90
2019-04-14T09:37:29.580Z,98635.39
2019-04-14T09:40:00.212Z,98632.13
2019-04-14T09:42:30.813Z,98633.08
2019-04-14T09:45:04.239Z,98636.69
2019-04-14T09:47:34.772Z,98637.52
2019-04-14T09:50:08.245Z,98637.10
2019-04-14T09:52:38.949Z,98634.47
2019-04-14T09:55:09.603Z,98635.26
2019-04-14T09:57:40.261Z,98637.56
2019-04-14T10:00:14.703Z,98631.90
2019-04-14T10:02:45.419Z,98638.16
2019-04-14T10:05:15.998Z,98643.00
2019-04-14T10:07:46.650Z,98642.20
2019-04-14T10:10:17.294Z,98643.05
2019-04-14T10:12:48.005Z,98644.93
2019-04-14T10:15:18.621Z,98644.03
2019-04-14T10:17:49.202Z,98642.44
2019-04-14T10:20:19.794Z,98645.63
2019-04-14T10:22:50.472Z,98645.64
2019-04-14T10:25:21.061Z,98640.85
2019-04-14T10:27:51.716Z,98639.44
2019-04-14T10:30:22.386Z,98645.08
2019-04-14T10:32:52.982Z,98646.02
2019-04-14T10:35:23.561Z,98646.24
2019-04-14T10:37:56.917Z,98648.24
2019-04-14T10:40:27.547Z,98647.20
2019-04-14T10:42:58.155Z,98644.00
2019-04-14T10:45:28.772Z,98640.98
2019-04-14T10:47:59.430Z,98640.02
2019-04-14T10:50:31.223Z,98641.84
2019-04-14T10:53:02.039Z,98647.90
2019-04-14T10:55:32.678Z,98650.67
2019-04-14T10:58:03.375Z,98644.31
2019-04-14T11:00:34.032Z,98641.27
2019-04-14T11:03:04.650Z,98634.37
2019-04-14T11:05:47.064Z,98636.39
2019-04-14T11:08:17.996Z,98633.01
2019-04-14T11:10:48.628Z,98634.86
2019-04-14T11:13:20.373Z,98640.55
2019-04-14T11:15:51.193Z,98631.27
2019-04-14T11:18:21.842Z,98631.78
2019-04-14T11:20:52.376Z,98630.06
2019-04-14T11:23:23.028Z,98629.45
2019-04-14T11:25:53.623Z,98630.16
2019-04-14T11:28:28.577Z,98622.88
2019-04-14T11:30:59.086Z,98629.59
2019-04-14T11:33:57.080Z,98624.19
2019-04-14T11:37:04.554Z,98629.33
2019-04-14T11:39:35.189Z,98632.56
2019-04-14T11:42:05.816Z,98639.88
2019-04-14T11:44:36.462Z,98635.02
2019-04-14T11:47:08.568Z,98636.66
2019-04-14T11:49:39.292Z,98637.52
2019-04-14T11:52:09.817Z,98632.13
2019-04-14T11:54:40.488Z,98627.92
2019-04-14T11:57:11.043Z,98632.50
2019-04-14T11:59:50.129Z,98632.70
2019-04-14T12:02:26.226Z,98628.81
2019-04-14T12:05:02.811Z,98628.53
2019-04-14T12:07:47.468Z,98628.73
2019-04-14T12:10:21.574Z,98626.33
2019-04-14T12:12:52.160Z,98627.81
2019-04-14T12:15:22.788Z,98626.35
2019-04-14T12:17:53.359Z,98629.53
2019-04-14T12:20:24.097Z,98619.28
2019-04-14T12:22:54.677Z,98620.63
2019-04-14T12:25:25.373Z,98616.53
2019-04-14T12:27:56.256Z,98631.38
2019-04-14T12:30:27.115Z,98629.09
2019-04-14T12:32:57.786Z,98623.56
2019-04-14T12:35:28.566Z,98627.02
2019-04-14T12:37:59.203Z,98634.52
2019-04-14T12:40:29.831Z,98631.41
2019-04-14T12:43:17.997Z,98618.23
2019-04-14T12:46:13.146Z,98628.67
2019-04-14T12:49:08.502Z,98626.86
2019-04-14T12:51:43.074Z,98622.81
2019-04-14T12:54:14.056Z,98611.57
2019-04-14T12:56:44.633Z,98609.11
2019-04-14T12:59:23.117Z,98614.02
2019-04-14T13:02:14.670Z,98618.23
2019-04-14T13:04:45.242Z,98618.88
2019-04-14T13:07:15.853Z,98623.77
2019-04-14T13:09:48.189Z,98621.12
2019-04-14T13:12:18.781Z,98617.53
2019-04-14T13:14:49.392Z,98608.69
2019-04-14T13:17:20.023Z,98611.30
2019-04-14T13:19:50.687Z,98615.73
2019-04-14T13:22:33.008Z,98606.59
2019-04-14T13:24:53.592Z,98609.98
2019-04-14T13:27:24.272Z,98604.06
2019-04-14T13:29:56.156Z,98599.10
2019-04-14T13:32:35.675Z,98604.63
2019-04-14T13:34:59.060Z,98607.58
2019-04-14T13:37:29.659Z,98601.65
2019-04-14T13:40:00.240Z,98607.45
2019-04-14T13:42:31.637Z,98604.83
2019-04-14T13:45:02.257Z,98619.87
2019-04-14T13:47:33.141Z,98609.09
2019-04-14T13:50:06.696Z,98604.34
2019-04-14T13:52:46.649Z,98608.33
2019-04-14T13:55:11.323Z,98610.20
2019-04-14T13:57:42.204Z,98600.47
2019-04-14T14:00:14.885Z,98605.89
2019-04-14T14:02:46.517Z,98604.52
2019-04-14T14:05:17.148Z,98601.71
2019-04-14T14:07:47.842Z,98601.71
2019-04-14T14:10:19.459Z,98604.56
2019-04-14T14:13:06.617Z,98602.30
2019-04-14T14:15:48.046Z,98593.42
2019-04-14T14:18:40.511Z,98593.30
2019-04-14T14:21:39.169Z,98587.75
2019-04-14T14:24:34.582Z,98580.19
2019-04-14T14:27:06.565Z,98581.42
2019-04-14T14:29:37.210Z,98573.11
2019-04-14T14:32:13.431Z,98576.00
2019-04-14T14:34:44.048Z,98572.72
2019-04-14T14:37:14.658Z,98572.99
2019-04-14T14:39:47.379Z,98578.53
2019-04-14T14:42:18.111Z,98579.08
2019-04-14T14:45:04.985Z,98568.80
2019-04-14T14:47:36.040Z,98572.40
2019-04-14T14:50:27.210Z,98588.56
2019-04-14T14:52:57.800Z,98577.61
2019-04-14T14:55:28.437Z,98580.39
2019-04-14T14:57:59.010Z,98579.54
2019-04-14T15:00:34.971Z,98572.27
2019-04-14T15:03:05.537Z,98571.50
2019-04-14T15:05:36.193Z,98576.21
2019-04-14T15:08:06.950Z,98566.14
2019-04-14T15:10:38.647Z,98571.25
2019-04-14T15:13:09.249Z,98576.33
2019-04-14T15:15:39.845Z,98577.67
2019-04-14T15:18:10.946Z,98578.04
2019-04-14T15:20:42.023Z,98585.59
2019-04-14T15:23:24.410Z,98580.59
2019-04-14T15:25:44.974Z,98578.20
2019-04-14T15:28:15.793Z,98578.14
2019-04-14T15:30:48.455Z,98579.86
2019-04-14T15:33:19.070Z,98570.08
2019-04-14T15:35:49.692Z,98589.42
2019-04-14T15:38:20.303Z,98582.98
2019-04-14T15:40:50.958Z,98588.41
2019-04-14T15:43:21.569Z,98583.73
2019-04-14T15:45:52.222Z,98579.37
2019-04-14T15:48:22.764Z,98575.87
2019-04-14T15:50:53.372Z,98581.02
2019-04-14T15:53:37.209Z,98589.69
2019-04-14T15:55:59.705Z,98583.00
2019-04-14T15:58:39.263Z,98577.36
2019-04-14T16:01:39.687Z,98589.03
2019-04-14T16:04:18.432Z,98583.79
2019-04-14T16:07:13.819Z,98592.67
2019-04-14T16:10:18.376Z,98601.42
2019-04-14T16:13:19.551Z,98601.14
2019-04-14T16:16:23.917Z,98608.41
2019-04-14T16:19:05.146Z,98608.57
2019-04-14T16:21:39.313Z,98606.12
2019-04-14T16:24:09.888Z,98609.36
2019-04-14T16:27:02.363Z,98610.67
2019-04-14T16:29:40.180Z,98607.36
2019-04-14T16:32:24.518Z,98607.30
2019-04-14T16:35:00.957Z,98602.39
2019-04-14T16:37:31.601Z,98610.73
2019-04-14T16:40:02.190Z,98624.68
2019-04-14T16:42:32.788Z,98616.56
2019-04-14T16:45:04.786Z,98623.66
2019-04-14T16:47:36.395Z,98627.29
2019-04-14T16:50:07.533Z,98625.19
2019-04-14T16:53:10.403Z,98635.66
2019-04-14T16:56:11.912Z,98631.30
2019-04-14T16:58:45.133Z,98642.34
2019-04-14T17:01:20.709Z,98653.22
2019-04-14T17:03:51.262Z,98656.81
2019-04-14T17:06:21.962Z,98663.05
2019-04-14T17:08:52.509Z,98656.50
2019-04-14T17:11:23.135Z,98658.34
2019-04-14T17:14:08.857Z,98664.56
2019-04-14T17:16:59.734Z,98659.36
2019-04-14T17:19:45.681Z,98669.35
2019-04-14T17:22:24.591Z,98669.68
2019-04-14T17:25:03.148Z,98672.68
2019-04-14T17:27:58.630Z,98675.77
2019-04-14T17:30:47.390Z,98673.46
2019-04-14T17:33:37.828Z,98676.43
2019-04-14T17:36:42.350Z,98678.57
2019-04-14T17:39:51.951Z,98685.11
2019-04-14T17:42:36.837Z,98683.63
2019-04-14T17:45:41.853Z,98693.81
2019-04-14T17:48:34.561Z,98694.64
2019-04-14T17:51:16.244Z,98695.97
2019-04-14T17:53:55.201Z,98691.92
2019-04-14T17:56:55.778Z,98695.38
2019-04-14T17:59:33.920Z,98698.00
2019-04-14T18:02:26.490Z,98701.14
2019-04-14T18:05:19.808Z,98700.67
2019-04-14T18:07:59.467Z,98703.42
2019-04-14T18:10:57.839Z,98708.53
2019-04-14T18:13:42.053Z,98707.53
2019-04-14T18:16:43.525Z,98710.83
2019-04-14T18:19:33.075Z,98711.16
2019-04-14T18:22:03.855Z,98715.08
2019-04-14T18:24:42.053Z,98713.80
2019-04-14T18:27:06.804Z,98723.13
2019-04-14T18:29:43.910Z,98720.98
2019-04-14T18:32:36.403Z,98731.26
2019-04-14T18:35:25.956Z,98736.97
2019-04-14T18:38:27.461Z,98736.44
2019-04-14T18:41:04.030Z,98746.55
2019-04-14T18:44:11.733Z,98756.78
2019-04-14T18:47:07.181Z,98762.62
2019-04-14T18:50:02.602Z,98769.60
2019-04-14T18:52:50.926Z,98775.63
2019-04-14T18:55:39.179Z,98776.52
2019-04-14T18:58:27.485Z,98782.22
2019-04-14T19:01:09.494Z,98785.11
2019-04-14T19:03:40.065Z,98795.86
2019-04-14T19:06:10.724Z,98798.55
2019-04-14T19:08:42.807Z,98801.88
2019-04-14T19:11:38.767Z,98801.71
2019-04-14T19:14:10.788Z,98797.77
2019-04-14T19:16:44.986Z,98804.28
2019-04-14T19:19:16.574Z,98812.75
2019-04-14T19:21:47.310Z,98810.48
2019-04-14T19:24:17.930Z,98815.36
2019-04-14T19:26:49.738Z,98819.87
2019-04-14T19:29:20.562Z,98822.97
2019-04-14T19:31:51.162Z,98821.28
2019-04-14T19:34:22.370Z,98822.72
2019-04-14T19:36:52.968Z,98828.89
2019-04-14T19:39:23.577Z,98841.70
2019-04-14T19:41:56.198Z,98845.56
2019-04-14T19:44:29.057Z,98844.91
2019-04-14T19:46:59.647Z,98853.84
2019-04-14T19:49:30.203Z,98854.63
2019-04-14T19:52:00.805Z,98853.33
2019-04-14T19:54:31.391Z,98858.66
2019-04-14T19:57:01.988Z,98863.01
2019-04-14T19:59:32.554Z,98875.02
2019-04-14T20:02:03.308Z,98886.03
2019-04-14T20:04:33.904Z,98884.45
2019-04-14T20:07:04.742Z,98890.20
2019-04-14T20:09:35.335Z,98892.09
2019-04-14T20:12:06.656Z,98890.05
2019-04-14T20:14:37.248Z,98898.80
2019-04-14T20:17:25.788Z,98903.30
2019-04-14T20:20:11.349Z,98904.13
2019-04-14T20:22:56.399Z,98907.97
2019-04-14T20:25:45.863Z,98909.03
2019-04-14T20:28:24.303Z,98908.12
2019-04-14T20:31:17.023Z,98911.86
2019-04-14T20:33:50.533Z,98910.23
2019-04-14T20:36:21.180Z,98915.85
2019-04-14T20:38:51.755Z,98920.45
2019-04-14T20:41:22.328Z,98924.04
2019-04-14T20:43:52.968Z,98925.08
2019-04-14T20:46:23.574Z,98922.77
2019-04-14T20:48:54.193Z,98927.01
2019-04-14T20:51:24.793Z,98926.08
2019-04-14T20:53:55.409Z,98927.59
2019-04-14T20:56:28.775Z,98924.52
2019-04-14T20:58:58.524Z,98921.44
2019-04-14T21:01:34.532Z,98918.80
2019-04-14T21:04:23.040Z,98920.89
2019-04-14T21:07:12.932Z,98916.61
2019-04-14T21:10:02.349Z,98921.30
2019-04-14T21:13:04.038Z,98912.23
2019-04-14T21:15:42.780Z,98915.38
2019-04-14T21:18:29.319Z,98916.37
2019-04-14T21:21:16.984Z,98913.14
2019-04-14T21:24:09.618Z,98916.52
2019-04-14T21:26:46.552Z,98923.43
2019-04-14T21:29:38.202Z,98927.51
2019-04-14T21:32:21.169Z,98930.10
2019-04-14T21:35:10.134Z,98924.63
2019-04-14T21:37:55.810Z,98929.53
2019-04-14T21:40:47.051Z,98928.47
2019-04-14T21:43:17.819Z,98928.53
2019-04-14T21:45:48.540Z,98934.22
2019-04-14T21:48:19.243Z,98939.58
2019-04-14T21:50:49.807Z,98944.67
2019-04-14T21:53:20.452Z,98945.14
2019-04-14T21:55:51.086Z,98945.61
2019-04-14T21:58:29.161Z,98950.12
2019-04-14T22:01:53.401Z,98938.02
2019-04-14T22:04:44.443Z,98932.21
2019-04-14T22:07:36.019Z,98924.58
2019-04-14T22:10:26.717Z,98928.27
2019-04-14T22:13:08.344Z,98935.91
2019-04-14T22:15:38.941Z,98941.16
2019-04-14T22:18:09.538Z,98945.55
2019-04-14T22:20:40.124Z,98953.89
2019-04-14T22:23:12.042Z,98954.00
2019-04-14T22:25:42.662Z,98952.35
2019-04-14T22:28:13.211Z,98947.22
2019-04-14T22:30:44.339Z,98945.20
2019-04-14T22:33:14.924Z,98942.51
2019-04-14T22:35:48.308Z,98956.55
2019-04-14T22:38:18.938Z,98957.16
2019-04-14T22:40:49.521Z,98955.81
2019-04-14T22:43:20.185Z,98963.98
2019-04-14T22:45:50.759Z,98965.74
2019-04-14T22:48:21.392Z,98965.48
2019-04-14T22:50:53.725Z,98957.65
2019-04-14T22:53:24.427Z,98959.41
2019-04-14T22:55:55.198Z,98955.02
2019-04-14T22:58:25.783Z,98955.30
2019-04-14T23:01:02.671Z,98962.81
2019-04-14T23:04:01.916Z,98964.82
2019-04-14T23:06:59.604Z,98973.73
2019-04-14T23:09:48.190Z,98977.59
2019-04-14T23:12:40.704Z,98974.67
2019-04-14T23:15:27.162Z,98972.31
2019-04-14T23:18:11.787Z,98967.13
2019-04-14T23:21:07.552Z,98964.82
2019-04-14T23:23:56.507Z,98963.17
2019-04-14T23:26:27.092Z,98968.23
2019-04-14T23:28:57.695Z,98963.53
2019-04-14T23:31:28.317Z,98957.42
2019-04-14T23:33:58.883Z,98957.31
2019-04-14T23:36:29.611Z,98956.81
2019-04-14T23:39:00.164Z,98957.20
2019-04-14T23:41:30.898Z,98955.55
2019-04-14T23:44:01.444Z,98967.66
2019-04-14T23:46:32.015Z,98973.88
2019-04-14T23:49:02.573Z,98981.50
2019-04-14T23:51:33.831Z,98980.07
2019-04-14T23:54:04.429Z,98988.88
2019-04-14T23:56:34.998Z,98981.80
2019-04-14T23:59:05.748Z,98972.28
